createdAt,value
2019-03-20T00:00:15.750Z,12.23
2019-03-20T00:02:44.136Z,16.37
2019-03-20T00:05:12.523Z,13.87
2019-03-20T00:07:40.906Z,17.00
2019-03-20T00:10:11.408Z,13.03
2019-03-20T00:12:39.787Z,15.30
2019-03-20T00:15:13.797Z,15.00
2019-03-20T00:17:42.169Z,14.67
2019-03-20T00:20:12.005Z,14.10
2019-03-20T00:22:42.962Z,10.83
2019-03-20T00:25:11.207Z,11.60
2019-03-20T00:27:39.582Z,11.40
2019-03-20T00:30:18.454Z,10.90
2019-03-20T00:32:47.177Z,12.77
2019-03-20T00:35:15.650Z,14.73
2019-03-20T00:37:44.037Z,15.67
2019-03-20T00:40:16.317Z,15.00
2019-03-20T00:42:44.724Z,14.47
2019-03-20T00:45:18.075Z,11.60
2019-03-20T00:47:46.455Z,14.43
2019-03-20T00:50:18.952Z,11.73
2019-03-20T00:52:47.400Z,10.63
2019-03-20T00:55:19.721Z,10.63
2019-03-20T00:57:48.377Z,11.07
2019-03-20T01:00:21.494Z,16.47
2019-03-20T01:02:50.819Z,19.87
2019-03-20T01:05:20.233Z,15.83
2019-03-20T01:07:48.690Z,15.20
2019-03-20T01:10:24.506Z,12.10
2019-03-20T01:12:53.060Z,11.33
2019-03-20T01:15:21.508Z,11.43
2019-03-20T01:17:50.037Z,13.57
2019-03-20T01:20:20.425Z,12.17
2019-03-20T01:22:49.047Z,9.40
2019-03-20T01:25:18.167Z,9.90
2019-03-20T01:27:46.726Z,9.77
2019-03-20T01:30:32.733Z,11.60
2019-03-20T01:33:02.365Z,11.53
2019-03-20T01:35:30.817Z,9.80
2019-03-20T01:37:59.285Z,11.07
2019-03-20T01:40:27.665Z,11.33
2019-03-20T01:42:56.049Z,10.47
2019-03-20T01:45:24.772Z,11.47
2019-03-20T01:47:53.211Z,11.73
2019-03-20T01:50:21.602Z,10.50
2019-03-20T01:52:49.985Z,8.27
2019-03-20T01:55:18.378Z,13.37
2019-03-20T01:57:46.759Z,11.17
2019-03-20T02:00:15.380Z,8.87
2019-03-20T02:02:43.838Z,12.43
2019-03-20T02:05:12.294Z,11.73
2019-03-20T02:07:40.673Z,13.10
2019-03-20T02:10:11.656Z,9.33
2019-03-20T02:12:40.039Z,10.77
2019-03-20T02:15:11.467Z,12.07
2019-03-20T02:17:39.862Z,12.03
2019-03-20T02:20:11.188Z,11.90
2019-03-20T02:22:39.640Z,11.87
2019-03-20T02:25:09.663Z,13.17
2019-03-20T02:27:38.045Z,8.27
2019-03-20T02:30:09.971Z,12.63
2019-03-20T02:32:38.368Z,11.60
2019-03-20T02:35:06.885Z,12.50
2019-03-20T02:37:35.267Z,11.40
2019-03-20T02:40:05.722Z,9.50
2019-03-20T02:42:34.082Z,12.77
2019-03-20T02:45:02.479Z,10.40
2019-03-20T02:47:30.865Z,13.43
2019-03-20T02:49:59.242Z,12.60
2019-03-20T02:52:27.634Z,13.83
2019-03-20T02:54:56.023Z,15.40
2019-03-20T02:57:24.466Z,11.83
2019-03-20T02:59:52.863Z,12.03
2019-03-20T03:02:21.251Z,10.60
2019-03-20T03:04:49.691Z,13.23
2019-03-20T03:07:18.025Z,10.20
2019-03-20T03:09:46.404Z,8.50
2019-03-20T03:12:14.815Z,12.37
2019-03-20T03:14:43.200Z,10.63
2019-03-20T03:17:11.595Z,10.17
2019-03-20T03:19:39.984Z,10.97
2019-03-20T03:22:08.370Z,10.90
2019-03-20T03:24:36.754Z,12.57
2019-03-20T03:27:05.156Z,11.87
2019-03-20T03:29:33.557Z,10.50
2019-03-20T03:32:01.952Z,10.80
2019-03-20T03:34:30.335Z,9.33
2019-03-20T03:36:58.731Z,12.17
2019-03-20T03:39:27.103Z,9.27
2019-03-20T03:41:55.566Z,12.27
2019-03-20T03:44:23.943Z,13.03
2019-03-20T03:46:52.365Z,12.67
2019-03-20T03:49:20.712Z,8.30
2019-03-20T03:51:49.087Z,11.47
2019-03-20T03:54:17.468Z,8.63
2019-03-20T03:56:46.122Z,12.07
2019-03-20T03:59:14.501Z,11.50
2019-03-20T04:01:42.882Z,8.03
2019-03-20T04:04:11.270Z,13.13
2019-03-20T04:06:39.823Z,9.53
2019-03-20T04:09:08.208Z,11.50
2019-03-20T04:11:36.594Z,14.87
2019-03-20T04:14:05.063Z,12.03
2019-03-20T04:16:33.454Z,11.57
2019-03-20T04:19:01.848Z,11.97
2019-03-20T04:21:30.221Z,9.33
2019-03-20T04:23:58.609Z,9.20
2019-03-20T04:26:26.994Z,10.43
2019-03-20T04:28:55.380Z,11.43
2019-03-20T04:31:23.762Z,14.27
2019-03-20T04:33:52.155Z,10.60
2019-03-20T04:36:20.542Z,10.07
2019-03-20T04:38:48.929Z,12.50
2019-03-20T04:41:17.330Z,13.00
2019-03-20T04:43:45.723Z,10.93
2019-03-20T04:46:14.106Z,12.67
2019-03-20T04:48:42.494Z,12.57
2019-03-20T04:51:10.887Z,9.73
2019-03-20T04:53:39.274Z,12.00
2019-03-20T04:56:07.654Z,9.00
2019-03-20T04:58:36.038Z,11.40
2019-03-20T05:01:04.485Z,12.37
2019-03-20T05:03:32.905Z,11.33
2019-03-20T05:06:01.292Z,9.43
2019-03-20T05:08:29.671Z,8.83
2019-03-20T05:10:58.055Z,10.03
2019-03-20T05:13:26.451Z,12.30
2019-03-20T05:15:54.835Z,11.33
2019-03-20T05:18:23.319Z,9.23
2019-03-20T05:20:51.648Z,8.40
2019-03-20T05:23:20.046Z,10.30
2019-03-20T05:25:48.427Z,11.30
2019-03-20T05:28:16.820Z,10.87
2019-03-20T05:30:45.196Z,13.53
2019-03-20T05:33:13.595Z,12.90
2019-03-20T05:35:41.988Z,13.00
2019-03-20T05:38:10.405Z,11.63
2019-03-20T05:40:38.784Z,10.33
2019-03-20T05:43:07.163Z,9.13
2019-03-20T05:45:35.545Z,12.70
2019-03-20T05:48:03.928Z,12.97
2019-03-20T05:50:32.314Z,14.13
2019-03-20T05:53:00.697Z,12.63
2019-03-20T05:55:29.082Z,9.83
2019-03-20T05:57:57.469Z,9.87
2019-03-20T06:00:27.503Z,11.00
2019-03-20T06:02:55.879Z,11.37
2019-03-20T06:05:24.285Z,10.87
2019-03-20T06:07:52.655Z,12.20
2019-03-20T06:10:21.055Z,10.93
2019-03-20T06:12:49.445Z,10.93
2019-03-20T06:15:17.839Z,10.33
2019-03-20T06:17:47.015Z,14.10
2019-03-20T06:20:15.563Z,10.67
2019-03-20T06:22:43.945Z,9.13
2019-03-20T06:25:14.441Z,13.33
2019-03-20T06:27:42.819Z,8.33
2019-03-20T06:30:18.656Z,9.33
2019-03-20T06:32:47.038Z,10.43
2019-03-20T06:35:15.559Z,12.07
2019-03-20T06:37:43.940Z,9.37
2019-03-20T06:40:14.066Z,17.37
2019-03-20T06:42:42.449Z,14.63
2019-03-20T06:45:15.850Z,12.07
2019-03-20T06:47:44.238Z,15.00
2019-03-20T06:50:16.432Z,11.73
2019-03-20T06:52:44.759Z,11.07
2019-03-20T06:55:13.290Z,16.07
2019-03-20T06:57:41.746Z,10.47
2019-03-20T07:00:44.963Z,11.20
2019-03-20T07:03:31.006Z,15.07
2019-03-20T07:06:31.186Z,9.73
2019-03-20T07:09:08.566Z,10.90
2019-03-20T07:11:39.665Z,16.37
2019-03-20T07:14:08.244Z,9.77
2019-03-20T07:16:36.467Z,12.93
2019-03-20T07:19:05.188Z,11.07
2019-03-20T07:21:33.574Z,11.03
2019-03-20T07:24:01.963Z,11.70
2019-03-20T07:26:30.346Z,10.47
2019-03-20T07:28:58.732Z,10.83
2019-03-20T07:31:27.116Z,12.07
2019-03-20T07:33:55.503Z,12.63
2019-03-20T07:36:24.261Z,11.17
2019-03-20T07:38:52.652Z,14.40
2019-03-20T07:41:21.035Z,13.27
2019-03-20T07:43:49.424Z,11.83
2019-03-20T07:46:17.822Z,15.20
2019-03-20T07:48:46.225Z,18.87
2019-03-20T07:51:14.613Z,11.97
2019-03-20T07:53:43.010Z,8.63
2019-03-20T07:56:11.464Z,13.90
2019-03-20T07:58:39.893Z,13.70
2019-03-20T08:01:08.232Z,11.15
2019-03-20T08:03:36.610Z,12.90
2019-03-20T08:06:05.231Z,11.03
2019-03-20T08:08:33.616Z,10.40
2019-03-20T08:11:01.997Z,10.73
2019-03-20T08:13:30.379Z,12.03
2019-03-20T08:15:58.773Z,14.33
2019-03-20T08:18:27.153Z,9.77
2019-03-20T08:20:55.530Z,8.97
2019-03-20T08:23:23.911Z,9.60
2019-03-20T08:25:52.289Z,8.80
2019-03-20T08:28:20.748Z,12.77
2019-03-20T08:30:49.204Z,11.30
2019-03-20T08:33:17.594Z,7.73
2019-03-20T08:35:46.394Z,9.73
2019-03-20T08:38:18.735Z,7.37
2019-03-20T08:40:44.916Z,6.70
2019-03-20T08:43:13.345Z,7.07
2019-03-20T08:45:41.759Z,6.43
2019-03-20T08:50:56.262Z,6.60
2019-03-20T08:53:24.681Z,7.90
2019-03-20T08:55:53.085Z,10.83
2019-03-20T08:58:21.607Z,7.33
2019-03-20T09:00:50.028Z,10.13
2019-03-20T09:03:18.414Z,7.10
2019-03-20T09:05:46.798Z,10.20
2019-03-20T09:08:15.173Z,5.77
2019-03-20T09:10:43.555Z,6.40
2019-03-20T09:13:11.997Z,5.97
2019-03-20T09:15:40.423Z,6.50
2019-03-20T09:18:08.834Z,9.47
2019-03-20T09:20:37.209Z,5.87
2019-03-20T09:23:05.589Z,7.77
2019-03-20T09:25:33.970Z,6.03
2019-03-20T09:28:02.352Z,6.73
2019-03-20T09:30:31.145Z,4.60
2019-03-20T09:32:59.518Z,5.20
2019-03-20T09:35:27.901Z,7.07
2019-03-20T09:37:56.295Z,7.97
2019-03-20T09:40:28.411Z,6.87
2019-03-20T09:42:56.865Z,7.77
2019-03-20T09:45:25.549Z,9.10
2019-03-20T09:47:53.940Z,2.73
2019-03-20T09:50:26.299Z,5.10
2019-03-20T09:52:54.681Z,6.37
2019-03-20T09:55:23.054Z,5.30
2019-03-20T09:57:51.438Z,7.93
2019-03-20T10:00:22.202Z,5.43
2019-03-20T10:02:50.588Z,7.13
2019-03-20T10:05:19.103Z,5.60
2019-03-20T10:07:47.585Z,5.60
2019-03-20T10:10:20.706Z,9.30
2019-03-20T10:12:49.298Z,25.53
2019-03-20T10:15:19.358Z,6.03
2019-03-20T10:17:47.887Z,4.67
2019-03-20T10:20:18.782Z,10.53
2019-03-20T10:22:47.254Z,4.33
2019-03-20T10:25:16.774Z,4.53
2019-03-20T10:27:45.319Z,6.63
2019-03-20T10:30:26.989Z,5.90
2019-03-20T10:32:55.466Z,6.67
2019-03-20T10:35:23.835Z,6.33
2019-03-20T10:37:52.248Z,9.57
2019-03-20T10:40:27.754Z,8.07
2019-03-20T10:42:56.162Z,7.43
2019-03-20T10:45:24.743Z,4.80
2019-03-20T10:47:53.546Z,7.27
2019-03-20T10:50:23.822Z,8.40
2019-03-20T10:52:52.276Z,10.60
2019-03-20T10:55:20.768Z,5.37
2019-03-20T10:57:49.265Z,6.33
2019-03-20T11:00:19.980Z,7.00
2019-03-20T11:02:48.396Z,7.80
2019-03-20T11:05:18.054Z,5.10
2019-03-20T11:07:46.472Z,6.67
2019-03-20T11:10:20.133Z,9.57
2019-03-20T11:12:48.530Z,7.03
2019-03-20T11:15:19.064Z,7.17
2019-03-20T11:17:47.584Z,4.40
2019-03-20T11:20:19.910Z,4.83
2019-03-20T11:22:48.765Z,7.90
2019-03-20T11:25:25.212Z,7.20
2019-03-20T11:27:53.654Z,9.73
2019-03-20T11:30:28.146Z,7.57
2019-03-20T11:32:56.626Z,6.73
2019-03-20T11:35:25.163Z,6.83
2019-03-20T11:37:53.727Z,5.97
2019-03-20T11:40:33.609Z,4.07
2019-03-20T11:43:01.998Z,4.37
2019-03-20T11:45:30.418Z,7.80
2019-03-20T11:47:58.836Z,6.47
2019-03-20T11:50:37.924Z,5.93
2019-03-20T11:53:07.588Z,10.30
2019-03-20T11:55:36.357Z,8.27
2019-03-20T11:58:05.907Z,7.67
2019-03-20T12:00:34.400Z,6.80
2019-03-20T12:03:02.824Z,6.73
2019-03-20T12:05:31.247Z,5.97
2019-03-20T12:07:59.706Z,7.13
2019-03-20T12:10:34.517Z,6.50
2019-03-20T12:13:02.940Z,7.03
2019-03-20T12:15:31.439Z,6.83
2019-03-20T12:17:59.860Z,8.53
2019-03-20T12:20:28.352Z,8.97
2019-03-20T12:22:56.767Z,7.90
2019-03-20T12:25:29.654Z,8.70
2019-03-20T12:27:58.140Z,7.20
2019-03-20T12:30:33.685Z,5.57
2019-03-20T12:33:02.103Z,6.67
2019-03-20T12:35:33.576Z,5.87
2019-03-20T12:38:13.309Z,6.27
2019-03-20T12:40:32.146Z,7.53
2019-03-20T12:43:00.567Z,6.37
2019-03-20T12:45:41.205Z,6.00
2019-03-20T12:48:15.633Z,7.17
2019-03-20T12:50:44.116Z,6.40
2019-03-20T12:53:15.779Z,5.40
2019-03-20T12:55:44.197Z,6.23
2019-03-20T12:58:12.610Z,5.90
2019-03-20T13:00:41.029Z,5.27
2019-03-20T13:03:09.517Z,8.13
2019-03-20T13:05:37.939Z,6.47
2019-03-20T13:08:06.557Z,9.97
2019-03-20T13:10:35.058Z,5.57
2019-03-20T13:13:05.114Z,8.47
2019-03-20T13:15:33.707Z,5.57
2019-03-20T13:18:02.188Z,6.13
2019-03-20T13:20:30.605Z,8.17
2019-03-20T13:23:02.068Z,6.27
2019-03-20T13:25:30.559Z,6.93
2019-03-20T13:27:59.027Z,6.60
2019-03-20T13:30:30.421Z,6.50
2019-03-20T13:32:58.924Z,7.27
2019-03-20T13:35:27.349Z,5.57
2019-03-20T13:37:55.804Z,8.33
2019-03-20T13:40:24.228Z,7.93
2019-03-20T13:42:52.647Z,6.37
2019-03-20T13:45:22.922Z,7.27
2019-03-20T13:47:51.348Z,5.63
2019-03-20T13:50:19.848Z,6.20
2019-03-20T13:52:48.280Z,8.70
2019-03-20T13:55:17.448Z,6.43
2019-03-20T13:57:45.866Z,6.20
2019-03-20T14:00:16.318Z,7.07
2019-03-20T14:02:44.745Z,6.90
2019-03-20T14:05:14.007Z,8.87
2019-03-20T14:07:42.509Z,4.20
2019-03-20T14:10:24.510Z,6.50
2019-03-20T14:12:46.998Z,9.40
2019-03-20T14:15:19.240Z,7.50
2019-03-20T14:17:47.728Z,7.87
2019-03-20T14:20:26.650Z,7.83
2019-03-20T14:22:55.084Z,8.27
2019-03-20T14:25:23.381Z,7.80
2019-03-20T14:27:55.442Z,8.57
2019-03-20T14:30:34.175Z,7.17
2019-03-20T14:33:02.593Z,8.37
2019-03-20T14:35:31.017Z,8.70
2019-03-20T14:37:59.477Z,4.93
2019-03-20T14:40:35.485Z,7.33
2019-03-20T14:43:00.628Z,7.43
2019-03-20T14:45:29.153Z,5.53
2019-03-20T14:47:57.570Z,6.03
2019-03-20T14:50:26.965Z,11.37
2019-03-20T14:52:55.388Z,8.33
2019-03-20T14:55:23.843Z,4.73
2019-03-20T14:57:52.386Z,7.20
2019-03-20T15:00:28.236Z,5.50
2019-03-20T15:02:56.722Z,7.67
2019-03-20T15:05:25.147Z,6.33
2019-03-20T15:07:53.836Z,9.10
2019-03-20T15:10:31.476Z,5.73
2019-03-20T15:12:59.896Z,5.37
2019-03-20T15:15:40.193Z,4.80
2019-03-20T15:18:08.705Z,6.20
2019-03-20T15:20:37.189Z,6.00
2019-03-20T15:23:05.749Z,6.73
2019-03-20T15:25:34.169Z,9.80
2019-03-20T15:28:02.588Z,5.93
2019-03-20T15:30:31.116Z,7.03
2019-03-20T15:32:59.530Z,6.47
2019-03-20T15:35:27.967Z,7.50
2019-03-20T15:37:56.392Z,6.50
2019-03-20T15:40:26.049Z,6.43
2019-03-20T15:42:54.471Z,7.13
2019-03-20T15:45:22.914Z,7.23
2019-03-20T15:47:51.411Z,8.73
2019-03-20T15:50:27.347Z,5.30
2019-03-20T15:52:55.834Z,8.03
2019-03-20T15:55:41.024Z,6.70
2019-03-20T15:58:09.510Z,5.80
2019-03-20T16:00:37.932Z,5.43
2019-03-20T16:03:09.462Z,4.47
2019-03-20T16:05:37.979Z,3.83
2019-03-20T16:08:08.586Z,8.73
2019-03-20T16:10:37.125Z,9.33
2019-03-20T16:13:05.789Z,6.33
2019-03-20T16:15:34.289Z,5.97
2019-03-20T16:18:02.708Z,7.10
2019-03-20T16:20:31.132Z,9.37
2019-03-20T16:22:59.563Z,6.87
2019-03-20T16:25:27.986Z,5.20
2019-03-20T16:27:56.482Z,5.37
2019-03-20T16:30:27.366Z,7.07
2019-03-20T16:32:56.585Z,7.40
2019-03-20T16:35:25.166Z,5.63
2019-03-20T16:37:53.602Z,5.07
2019-03-20T16:40:29.940Z,5.17
2019-03-20T16:42:58.365Z,4.03
2019-03-20T16:45:31.671Z,5.87
2019-03-20T16:48:00.256Z,5.43
2019-03-20T16:50:28.677Z,6.87
2019-03-20T16:52:57.175Z,5.93
2019-03-20T16:55:25.895Z,5.37
2019-03-20T16:57:54.310Z,4.07
2019-03-20T17:00:30.920Z,7.37
2019-03-20T17:02:59.589Z,7.80
2019-03-20T17:05:28.536Z,3.83
2019-03-20T17:07:57.125Z,4.00
2019-03-20T17:10:42.083Z,6.70
2019-03-20T17:13:10.514Z,7.87
2019-03-20T17:15:39.895Z,6.30
2019-03-20T17:18:09.060Z,6.73
2019-03-20T17:20:37.482Z,8.50
2019-03-20T17:23:07.750Z,6.80
2019-03-20T17:25:36.461Z,10.90
2019-03-20T17:28:05.508Z,7.77
2019-03-20T17:30:48.075Z,7.50
2019-03-20T17:33:16.492Z,4.90
2019-03-20T17:35:44.928Z,8.10
2019-03-20T17:38:13.347Z,9.13
2019-03-20T17:40:41.809Z,7.77
2019-03-20T17:43:10.201Z,6.53
2019-03-20T17:45:38.767Z,7.80
2019-03-20T17:48:07.265Z,9.57
2019-03-20T17:50:35.863Z,9.10
2019-03-20T17:53:05.721Z,14.03
2019-03-20T17:55:34.219Z,7.67
2019-03-20T17:58:02.704Z,8.70
2019-03-20T18:00:42.529Z,7.40
2019-03-20T18:03:11.110Z,6.53
2019-03-20T18:05:39.875Z,6.50
2019-03-20T18:08:09.031Z,5.90
2019-03-20T18:10:37.531Z,9.03
2019-03-20T18:13:07.393Z,9.37
2019-03-20T18:15:36.153Z,8.87
2019-03-20T18:18:05.432Z,9.20
2019-03-20T18:20:33.874Z,9.83
2019-03-20T18:23:02.438Z,15.73
2019-03-20T18:25:30.860Z,13.50
2019-03-20T18:27:59.282Z,15.20
2019-03-20T18:30:36.742Z,14.03
2019-03-20T18:33:05.298Z,20.07
2019-03-20T18:35:33.724Z,13.30
2019-03-20T18:38:02.147Z,9.33
2019-03-20T18:40:30.567Z,12.80
2019-03-20T18:42:58.995Z,10.70
2019-03-20T18:45:27.654Z,7.43
2019-03-20T18:47:56.138Z,7.33
2019-03-20T18:50:25.570Z,10.07
2019-03-20T18:52:54.112Z,11.70
2019-03-20T18:55:22.511Z,14.90
2019-03-20T18:57:51.060Z,13.13
2019-03-20T19:00:35.267Z,14.53
2019-03-20T19:03:12.146Z,12.50
2019-03-20T19:06:00.545Z,15.83
2019-03-20T19:08:28.998Z,17.40
2019-03-20T19:10:57.411Z,17.13
2019-03-20T19:13:25.798Z,17.60
2019-03-20T19:15:54.178Z,16.37
2019-03-20T19:18:22.565Z,16.53
2019-03-20T19:20:50.950Z,16.53
2019-03-20T19:23:19.329Z,13.93
2019-03-20T19:25:47.726Z,15.60
2019-03-20T19:28:16.122Z,14.63
2019-03-20T19:30:44.498Z,19.23
2019-03-20T19:33:12.881Z,12.37
2019-03-20T19:35:41.273Z,15.50
2019-03-20T19:38:09.753Z,16.57
2019-03-20T19:40:38.151Z,14.53
2019-03-20T19:43:06.529Z,16.30
2019-03-20T19:45:34.928Z,15.17
2019-03-20T19:48:03.317Z,15.20
2019-03-20T19:50:31.719Z,15.80
2019-03-20T19:53:00.105Z,14.33
2019-03-20T19:55:28.528Z,17.00
2019-03-20T19:57:56.921Z,21.60
2019-03-20T20:00:26.449Z,19.33
2019-03-20T20:02:54.830Z,19.63
2019-03-20T20:05:23.268Z,21.97
2019-03-20T20:07:51.729Z,19.00
2019-03-20T20:10:20.865Z,20.47
2019-03-20T20:12:49.422Z,14.17
2019-03-20T20:15:26.755Z,11.83
2019-03-20T20:17:55.135Z,14.30
2019-03-20T20:20:30.994Z,13.80
2019-03-20T20:22:59.376Z,15.57
2019-03-20T20:25:27.808Z,12.10
2019-03-20T20:27:56.277Z,13.40
2019-03-20T20:30:24.660Z,13.73
2019-03-20T20:32:53.034Z,10.13
2019-03-20T20:35:21.426Z,12.87
2019-03-20T20:37:50.560Z,14.03
2019-03-20T20:40:26.009Z,11.60
2019-03-20T20:42:54.393Z,10.67
2019-03-20T20:45:22.953Z,15.37
2019-03-20T20:47:51.426Z,18.03
2019-03-20T20:50:19.801Z,15.77
2019-03-20T20:52:48.278Z,18.10
2019-03-20T20:55:18.104Z,16.53
2019-03-20T20:57:46.533Z,18.13
2019-03-20T21:00:18.761Z,13.97
2019-03-20T21:02:47.150Z,12.30
2019-03-20T21:05:15.548Z,11.60
2019-03-20T21:07:43.934Z,14.63
2019-03-20T21:10:15.109Z,12.90
2019-03-20T21:12:55.133Z,12.57
2019-03-20T21:15:34.178Z,14.33
2019-03-20T21:18:17.442Z,14.60
2019-03-20T21:20:47.776Z,16.70
2019-03-20T21:23:37.931Z,15.77
2019-03-20T21:26:12.121Z,17.17
2019-03-20T21:29:11.840Z,20.73
2019-03-20T21:31:45.795Z,12.87
2019-03-20T21:34:22.959Z,17.63
2019-03-20T21:37:09.478Z,15.63
2019-03-20T21:39:37.879Z,11.83
2019-03-20T21:42:33.434Z,16.00
2019-03-20T21:45:16.989Z,15.03
2019-03-20T21:47:45.492Z,15.67
2019-03-20T21:50:36.636Z,12.87
2019-03-20T21:53:05.015Z,14.40
2019-03-20T21:56:09.560Z,15.70
2019-03-20T21:58:40.987Z,16.37
2019-03-20T22:01:15.509Z,20.40
2019-03-20T22:03:44.003Z,13.83
2019-03-20T22:06:42.438Z,18.47
2019-03-20T22:09:13.912Z,17.47
2019-03-20T22:12:14.029Z,15.67
2019-03-20T22:14:45.052Z,15.13
2019-03-20T22:17:32.711Z,16.40
2019-03-20T22:20:09.945Z,15.77
2019-03-20T22:22:44.126Z,17.17
2019-03-20T22:25:27.292Z,17.60
2019-03-20T22:28:24.318Z,18.73
2019-03-20T22:30:52.700Z,20.97
2019-03-20T22:33:57.225Z,16.53
2019-03-20T22:36:25.682Z,22.03
2019-03-20T22:39:02.883Z,16.80
2019-03-20T22:41:45.955Z,16.70
2019-03-20T22:44:14.339Z,17.10
2019-03-20T22:47:20.476Z,19.40
2019-03-20T22:50:00.719Z,16.60
2019-03-20T22:52:50.433Z,16.10
2019-03-20T22:55:40.865Z,15.53
2019-03-20T22:58:43.526Z,16.00
2019-03-20T23:01:20.523Z,13.43
2019-03-20T23:03:57.805Z,12.17
2019-03-20T23:06:26.354Z,17.37
2019-03-20T23:08:54.744Z,17.70
2019-03-20T23:11:23.131Z,18.07
2019-03-20T23:13:51.564Z,18.00
2019-03-20T23:16:20.986Z,19.17
2019-03-20T23:18:49.373Z,15.23
2019-03-20T23:21:17.783Z,15.73
2019-03-20T23:23:46.151Z,15.60
2019-03-20T23:26:14.543Z,15.53
2019-03-20T23:28:43.007Z,15.60
2019-03-20T23:31:11.385Z,12.33
2019-03-20T23:33:39.785Z,15.50
2019-03-20T23:36:08.177Z,14.40
2019-03-20T23:38:36.567Z,13.37
2019-03-20T23:41:05.188Z,13.60
2019-03-20T23:43:33.769Z,12.80
2019-03-20T23:46:02.493Z,14.37
2019-03-20T23:48:33.913Z,15.73
2019-03-20T23:51:08.377Z,13.50
2019-03-20T23:53:37.209Z,14.80
2019-03-20T23:56:05.665Z,15.47
2019-03-20T23:58:34.052Z,16.13
